Time;durP1;ratioP1;P1;durP2;ratioP2;P2;SDS_P1;SDS_P2;PMS_P1;PMS_P2;Temp;Humidity;BMP_temperature;BMP_pressure;BME280_temperature;BME280_humidity;BME280_pressure;Samples;Min_cycle;Max_cycle;Signal;HPM_P1;HPM_P2
2022/06/28 00:00:07;;;;;;;3.60;2.87;;;26.30;58.10;;;;;;5026230;28;20193;-44
2022/06/28 00:02:33;;;;;;;2.90;2.13;;;26.30;57.90;;;;;;5025733;28;20823;-45
2022/06/28 00:04:58;;;;;;;3.93;2.60;;;26.30;57.90;;;;;;5027973;28;20491;-44
2022/06/28 00:07:24;;;;;;;3.30;2.30;;;26.30;57.90;;;;;;5024802;28;20648;-47
2022/06/28 00:09:50;;;;;;;2.93;2.60;;;26.30;57.90;;;;;;5033264;28;20204;-44
2022/06/28 00:12:15;;;;;;;3.43;2.50;;;26.30;58.00;;;;;;5019672;28;20667;-48
2022/06/28 00:17:25;;;;;;;2.63;2.43;;;26.30;57.90;;;;;;5024459;28;20201;-45
2022/06/28 00:19:51;;;;;;;3.20;2.50;;;26.30;57.80;;;;;;5024058;28;20436;-46
2022/06/28 00:22:17;;;;;;;2.17;1.97;;;26.30;57.90;;;;;;5021118;28;20650;-44
2022/06/28 00:24:42;;;;;;;8.73;2.60;;;26.20;57.80;;;;;;5021396;28;20228;-45
2022/06/28 00:27:08;;;;;;;3.30;2.17;;;26.20;57.80;;;;;;5036371;28;20254;-43
2022/06/28 00:29:33;;;;;;;2.97;2.77;;;26.20;58.50;;;;;;5033883;28;20211;-44
2022/06/28 00:31:59;;;;;;;9.13;2.83;;;26.20;58.00;;;;;;5022490;28;20194;-47
2022/06/28 00:34:24;;;;;;;3.70;2.50;;;26.20;57.70;;;;;;5031092;28;20192;-45
2022/06/28 00:36:50;;;;;;;2.80;2.13;;;26.20;57.90;;;;;;5024776;28;20189;-44
2022/06/28 00:39:16;;;;;;;2.90;2.60;;;26.20;57.80;;;;;;5030159;28;20472;-44
2022/06/28 00:41:42;;;;;;;2.30;2.20;;;26.20;57.80;;;;;;5032196;28;20286;-44
2022/06/28 00:44:11;;;;;;;2.80;2.27;;;26.20;57.80;;;;;;5026977;28;20943;-45
2022/06/28 00:46:36;;;;;;;8.43;2.73;;;26.20;57.60;;;;;;5032046;28;20429;-44
2022/06/28 00:49:03;;;;;;;3.07;2.27;;;26.10;57.70;;;;;;5029594;28;20443;-45
2022/06/28 00:51:29;;;;;;;3.43;3.13;;;26.10;57.80;;;;;;5027115;28;20240;-44
2022/06/28 00:53:55;;;;;;;2.07;1.97;;;26.10;57.60;;;;;;5026013;28;20439;-45
2022/06/28 00:56:21;;;;;;;2.63;2.43;;;26.10;57.70;;;;;;5028918;28;20268;-48
2022/06/28 00:58:48;;;;;;;2.67;2.47;;;26.10;57.60;;;;;;5032464;28;20439;-44
2022/06/28 01:01:14;;;;;;;4.33;2.23;;;26.10;57.90;;;;;;5026858;28;20435;-44
2022/06/28 01:03:39;;;;;;;2.60;2.40;;;26.00;57.80;;;;;;5028181;28;20487;-45
2022/06/28 01:06:05;;;;;;;4.27;2.87;;;26.00;57.80;;;;;;5022529;28;20462;-45
2022/06/28 01:08:31;;;;;;;2.03;1.93;;;26.10;57.80;;;;;;5022112;28;20193;-43
2022/06/28 01:10:56;;;;;;;3.07;2.30;;;26.10;57.80;;;;;;5022709;28;20620;-44
2022/06/28 01:13:22;;;;;;;3.60;2.30;;;26.10;57.70;;;;;;5032117;28;20224;-45
2022/06/28 01:15:48;;;;;;;6.13;3.03;;;26.10;57.70;;;;;;5032997;28;20196;-47
2022/06/28 01:18:14;;;;;;;2.23;2.03;;;26.10;57.60;;;;;;5019952;28;20281;-46
2022/06/28 01:20:44;;;;;;;2.70;2.50;;;26.10;57.70;;;;;;5021102;28;20247;-45
2022/06/28 01:23:10;;;;;;;2.60;1.93;;;26.10;57.70;;;;;;5023499;28;20205;-44
2022/06/28 01:25:36;;;;;;;2.00;1.90;;;26.10;57.60;;;;;;5028817;28;20957;-45
2022/06/28 01:28:05;;;;;;;5.20;2.30;;;26.10;57.70;;;;;;5023504;28;20428;-45
2022/06/28 01:30:30;;;;;;;2.20;2.10;;;26.00;57.40;;;;;;5032854;28;20438;-44
2022/06/28 01:32:56;;;;;;;3.20;2.33;;;26.00;57.60;;;;;;5037125;28;20436;-44
2022/06/28 01:35:22;;;;;;;2.40;2.20;;;26.00;57.60;;;;;;5030330;28;20186;-44
2022/06/28 01:37:49;;;;;;;2.20;2.00;;;26.00;57.60;;;;;;5030086;28;20198;-46
2022/06/28 01:40:15;;;;;;;2.10;1.90;;;26.00;57.70;;;;;;5025535;28;20200;-44
2022/06/28 01:42:41;;;;;;;2.27;2.07;;;26.00;57.60;;;;;;5029798;28;20444;-44
2022/06/28 01:45:08;;;;;;;4.33;3.27;;;26.00;57.70;;;;;;5032868;28;21879;-45
2022/06/28 01:47:35;;;;;;;2.37;2.00;;;25.90;57.50;;;;;;5024067;28;20502;-45
2022/06/28 01:50:02;;;;;;;4.83;2.30;;;26.00;57.80;;;;;;5033855;28;20452;-49
2022/06/28 01:52:28;;;;;;;8.17;2.50;;;25.90;57.90;;;;;;5027980;28;21395;-45
2022/06/28 01:54:53;;;;;;;3.13;1.73;;;25.90;57.40;;;;;;5024430;28;20445;-46
2022/06/28 01:57:19;;;;;;;2.60;2.40;;;25.90;58.00;;;;;;5033938;28;20192;-44
2022/06/28 01:59:45;;;;;;;2.50;2.30;;;25.90;58.10;;;;;;5033595;28;20567;-47
2022/06/28 02:02:10;;;;;;;1.90;1.80;;;25.70;57.90;;;;;;5035737;28;20228;-44
2022/06/28 02:04:36;;;;;;;2.40;2.07;;;25.70;58.20;;;;;;5029343;28;20221;-44
2022/06/28 02:07:02;;;;;;;3.10;2.53;;;25.70;58.20;;;;;;5028464;28;20208;-45
2022/06/28 02:09:27;;;;;;;5.30;2.10;;;25.80;58.10;;;;;;5032955;28;20197;-45
2022/06/28 02:11:54;;;;;;;2.07;1.90;;;25.80;58.00;;;;;;5028547;28;20254;-44
2022/06/28 02:14:20;;;;;;;2.43;2.23;;;25.80;58.00;;;;;;5029597;28;20240;-44
2022/06/28 02:16:46;;;;;;;3.50;2.07;;;25.80;57.90;;;;;;5027391;28;20847;-44
2022/06/28 02:19:12;;;;;;;2.30;2.10;;;25.80;57.90;;;;;;5025140;28;20943;-44
2022/06/28 02:21:40;;;;;;;1.93;1.83;;;25.80;57.90;;;;;;5019118;28;20435;-45
2022/06/28 02:24:10;;;;;;;2.00;1.90;;;25.80;57.70;;;;;;5031216;28;20524;-44
2022/06/28 02:26:36;;;;;;;2.20;2.00;;;25.90;57.60;;;;;;5031561;28;20788;-46
2022/06/28 02:29:03;;;;;;;3.00;2.50;;;25.80;57.60;;;;;;5024282;28;20475;-44
2022/06/28 02:31:29;;;;;;;1.80;1.70;;;25.80;57.50;;;;;;5032118;28;20526;-44
2022/06/28 02:33:56;;;;;;;3.57;3.00;;;25.80;57.40;;;;;;5030283;28;20531;-45
2022/06/28 02:41:42;;;;;;;1.90;1.80;;;25.60;57.40;;;;;;5025344;28;20460;-44
2022/06/28 02:44:08;;;;;;;2.50;2.03;;;25.70;57.60;;;;;;5035624;28;20514;-45
2022/06/28 02:46:33;;;;;;;2.23;2.03;;;25.60;57.60;;;;;;5034420;28;20859;-47
2022/06/28 02:48:59;;;;;;;2.63;2.10;;;25.60;57.50;;;;;;5031719;28;20517;-44
2022/06/28 02:51:25;;;;;;;4.47;2.57;;;25.60;57.40;;;;;;5027811;28;20667;-44
2022/06/28 02:53:52;;;;;;;4.30;2.47;;;25.60;57.30;;;;;;5028739;28;20704;-46
2022/06/28 02:56:19;;;;;;;2.13;1.93;;;25.70;57.20;;;;;;5030853;28;20589;-44
2022/06/28 02:58:44;;;;;;;1.93;1.77;;;25.60;57.10;;;;;;5028921;28;20444;-44
2022/06/28 03:01:10;;;;;;;8.67;3.47;;;25.70;57.10;;;;;;5030999;28;20454;-45
2022/06/28 03:03:36;;;;;;;3.10;2.90;;;25.70;56.80;;;;;;5022389;28;20221;-44
2022/06/28 03:06:01;;;;;;;3.90;3.60;;;25.60;55.90;;;;;;5035612;28;20239;-45
2022/06/28 03:08:27;;;;;;;4.13;2.90;;;25.40;55.80;;;;;;5028844;28;20646;-44
2022/06/28 03:10:53;;;;;;;4.10;3.10;;;25.20;56.20;;;;;;5033862;28;20239;-44
2022/06/28 03:13:18;;;;;;;3.03;2.83;;;24.90;56.60;;;;;;5026042;28;20211;-45
2022/06/28 03:15:44;;;;;;;3.40;3.10;;;24.60;57.10;;;;;;5024699;28;20220;-45
2022/06/28 03:18:10;;;;;;;4.03;3.40;;;24.40;57.60;;;;;;5026926;28;20193;-44
2022/06/28 03:20:35;;;;;;;6.43;3.20;;;24.20;58.20;;;;;;5024791;28;20287;-44
2022/06/28 03:23:01;;;;;;;3.30;2.90;;;24.00;58.70;;;;;;5030034;28;20708;-44
2022/06/28 03:25:27;;;;;;;3.27;3.07;;;23.90;59.30;;;;;;5020476;28;20826;-45
2022/06/28 03:27:52;;;;;;;6.40;4.00;;;23.70;59.90;;;;;;5024492;28;20189;-48
2022/06/28 03:30:18;;;;;;;4.80;3.90;;;23.60;60.60;;;;;;5035532;28;20194;-48
2022/06/28 03:32:44;;;;;;;4.13;3.30;;;23.50;61.00;;;;;;5027945;28;20201;-45
2022/06/28 03:35:10;;;;;;;3.70;3.33;;;23.20;61.90;;;;;;5027976;28;20194;-44
2022/06/28 03:37:36;;;;;;;3.17;2.97;;;23.00;62.80;;;;;;5027964;28;20319;-45
2022/06/28 03:40:03;;;;;;;5.50;3.40;;;22.90;63.50;;;;;;5031258;28;20889;-45
2022/06/28 03:42:29;;;;;;;6.50;2.73;;;22.90;63.90;;;;;;5031059;28;20440;-45
2022/06/28 03:44:55;;;;;;;7.00;3.23;;;22.90;64.00;;;;;;5027052;28;20498;-45
2022/06/28 03:47:20;;;;;;;3.63;2.87;;;22.90;64.00;;;;;;5037531;28;20214;-45
2022/06/28 03:49:47;;;;;;;3.13;2.90;;;22.90;64.00;;;;;;5031148;28;20242;-44
2022/06/28 03:52:14;;;;;;;3.20;2.90;;;22.90;64.00;;;;;;5019888;28;20285;-44
2022/06/28 03:54:39;;;;;;;3.17;2.80;;;22.90;64.30;;;;;;5030280;28;20436;-45
2022/06/28 03:57:05;;;;;;;3.47;3.17;;;22.90;64.50;;;;;;5046386;28;20508;-46
2022/06/28 03:59:31;;;;;;;3.97;3.37;;;22.90;64.90;;;;;;5030224;28;20200;-44
2022/06/28 04:01:57;;;;;;;4.53;4.13;;;22.80;64.90;;;;;;5030823;28;20442;-44
2022/06/28 04:04:22;;;;;;;3.47;3.17;;;22.80;65.10;;;;;;5034351;28;20225;-44
2022/06/28 04:06:48;;;;;;;3.77;2.77;;;22.80;65.60;;;;;;5041740;28;20622;-44
2022/06/28 04:09:14;;;;;;;3.20;2.83;;;22.70;65.40;;;;;;5040098;28;20204;-43
2022/06/28 04:11:39;;;;;;;2.90;2.70;;;22.50;65.90;;;;;;5028734;28;20193;-44
2022/06/28 04:14:05;;;;;;;2.40;2.20;;;22.40;66.40;;;;;;5033557;28;20267;-46
2022/06/28 04:16:32;;;;;;;3.27;2.97;;;22.10;67.10;;;;;;5032322;28;20196;-44
2022/06/28 04:18:58;;;;;;;3.30;3.00;;;22.10;68.00;;;;;;5035407;28;20189;-44
2022/06/28 04:21:23;;;;;;;4.73;3.00;;;22.10;67.90;;;;;;5027666;28;20509;-43
2022/06/28 04:23:49;;;;;;;3.53;3.10;;;22.30;67.50;;;;;;5042609;28;20487;-44
2022/06/28 04:26:15;;;;;;;3.10;2.80;;;22.40;67.30;;;;;;5037724;28;20192;-44
2022/06/28 04:28:41;;;;;;;3.77;3.37;;;22.50;67.00;;;;;;5027753;28;20688;-44
2022/06/28 04:31:07;;;;;;;4.33;3.67;;;22.50;66.80;;;;;;5041148;28;20227;-43
2022/06/28 04:33:33;;;;;;;5.27;4.20;;;22.50;66.90;;;;;;5036140;28;20452;-44
2022/06/28 04:35:59;;;;;;;4.30;3.90;;;22.60;67.30;;;;;;5031178;28;20495;-44
2022/06/28 04:38:24;;;;;;;4.47;4.07;;;22.60;67.40;;;;;;5026525;28;20224;-43
2022/06/28 04:40:50;;;;;;;6.27;4.87;;;22.60;67.50;;;;;;5029824;28;20779;-44
2022/06/28 04:43:16;;;;;;;4.90;4.27;;;22.60;67.50;;;;;;5030499;28;20189;-43
2022/06/28 04:45:42;;;;;;;6.07;3.50;;;22.70;67.80;;;;;;5023956;28;20197;-44
2022/06/28 04:48:07;;;;;;;4.93;3.90;;;22.70;67.80;;;;;;5028432;28;20446;-45
2022/06/28 04:50:33;;;;;;;8.73;3.87;;;22.70;67.80;;;;;;5018233;28;20199;-43
2022/06/28 04:52:59;;;;;;;4.93;4.20;;;22.70;67.80;;;;;;5024099;28;20197;-44
2022/06/28 04:55:25;;;;;;;4.30;3.40;;;22.80;68.00;;;;;;5025325;28;20197;-43
2022/06/28 04:57:51;;;;;;;3.80;3.50;;;22.80;67.80;;;;;;5030587;28;20447;-44
2022/06/28 05:00:17;;;;;;;3.57;3.20;;;22.80;67.70;;;;;;5033020;28;20201;-43
2022/06/28 05:02:43;;;;;;;4.87;3.20;;;22.80;67.90;;;;;;5034027;28;20200;-47
2022/06/28 05:05:09;;;;;;;3.93;3.47;;;22.90;67.60;;;;;;5029630;28;20487;-43
2022/06/28 05:07:36;;;;;;;3.83;3.40;;;22.90;67.30;;;;;;5026257;28;20672;-46
2022/06/28 05:10:04;;;;;;;3.70;3.43;;;22.90;67.30;;;;;;5024408;28;20450;-44
2022/06/28 05:12:30;;;;;;;5.17;3.53;;;22.90;67.50;;;;;;5033796;28;20521;-43
2022/06/28 05:14:55;;;;;;;10.37;2.43;;;22.90;67.50;;;;;;5030528;28;20551;-44
2022/06/28 05:17:21;;;;;;;4.10;2.80;;;22.80;70.90;;;;;;5038031;28;20218;-44
2022/06/28 05:19:48;;;;;;;3.40;3.10;;;23.10;69.40;;;;;;5023771;28;20194;-44
2022/06/28 05:22:14;;;;;;;3.17;2.87;;;23.30;67.90;;;;;;5020926;28;20205;-46
2022/06/28 05:24:40;;;;;;;3.20;2.90;;;23.50;66.80;;;;;;5038271;28;20505;-44
2022/06/28 05:27:05;;;;;;;2.50;1.93;;;23.70;66.30;;;;;;5034409;28;20620;-43
2022/06/28 05:29:31;;;;;;;9.90;3.20;;;23.80;65.70;;;;;;5038701;28;20185;-44
2022/06/28 05:31:57;;;;;;;8.43;2.43;;;24.00;65.20;;;;;;5034189;28;20197;-44
2022/06/28 05:34:23;;;;;;;5.93;2.10;;;24.20;65.30;;;;;;5027305;28;20448;-43
2022/06/28 05:36:49;;;;;;;5.00;3.20;;;24.30;64.60;;;;;;5025592;28;20458;-43
2022/06/28 05:39:15;;;;;;;3.20;3.00;;;24.50;63.80;;;;;;5030082;28;20189;-43
2022/06/28 05:41:43;;;;;;;4.13;3.03;;;24.60;63.30;;;;;;5033976;28;20566;-47
2022/06/28 05:44:10;;;;;;;3.23;2.67;;;24.70;62.80;;;;;;5037565;28;20487;-44
2022/06/28 05:46:36;;;;;;;3.03;2.83;;;24.80;62.40;;;;;;5030132;28;20535;-43
2022/06/28 05:49:02;;;;;;;8.77;3.53;;;24.90;62.10;;;;;;5037449;28;20431;-43
2022/06/28 05:51:29;;;;;;;4.13;3.07;;;25.00;61.60;;;;;;5034769;28;20498;-47
2022/06/28 05:53:56;;;;;;;2.90;2.50;;;25.10;61.40;;;;;;5032655;28;20215;-45
2022/06/28 05:56:22;;;;;;;4.50;4.10;;;25.20;61.20;;;;;;5031128;28;20438;-46
2022/06/28 05:58:47;;;;;;;7.93;3.80;;;25.20;61.00;;;;;;5032931;28;20425;-44
2022/06/28 06:01:13;;;;;;;8.50;4.40;;;25.20;60.70;;;;;;5031901;28;20568;-43
2022/06/28 06:03:39;;;;;;;7.37;4.00;;;25.30;60.80;;;;;;5042691;28;20299;-44
2022/06/28 06:06:05;;;;;;;6.00;3.23;;;25.20;60.90;;;;;;5032827;28;20236;-43
2022/06/28 06:08:30;;;;;;;3.10;2.90;;;25.30;61.10;;;;;;5037499;28;20204;-43
2022/06/28 06:10:56;;;;;;;4.57;3.70;;;25.30;60.90;;;;;;5034634;28;20919;-44
2022/06/28 06:13:22;;;;;;;3.50;3.17;;;25.40;60.70;;;;;;5013291;28;20197;-45
2022/06/28 06:15:47;;;;;;;6.93;4.50;;;25.40;60.70;;;;;;5029686;28;20599;-46
2022/06/28 06:18:13;;;;;;;5.57;4.23;;;25.40;60.50;;;;;;5029480;28;20210;-46
2022/06/28 06:20:38;;;;;;;3.93;3.63;;;25.50;60.60;;;;;;5032834;28;20212;-48
2022/06/28 06:23:05;;;;;;;5.20;3.80;;;25.40;60.50;;;;;;5028117;28;20185;-46
2022/06/28 06:25:30;;;;;;;6.50;6.00;;;25.50;60.40;;;;;;5030599;28;20221;-44
2022/06/28 06:27:56;;;;;;;5.73;5.33;;;25.40;60.40;;;;;;5026108;28;21129;-44
2022/06/28 06:30:21;;;;;;;5.77;4.20;;;25.40;60.40;;;;;;5026473;28;20208;-47
2022/06/28 06:32:47;;;;;;;4.60;4.20;;;25.40;60.60;;;;;;5030349;28;20280;-48
2022/06/28 06:35:13;;;;;;;5.60;5.07;;;25.40;60.90;;;;;;5031118;28;20193;-44
2022/06/28 06:37:38;;;;;;;4.30;4.00;;;25.40;61.00;;;;;;5031792;28;20570;-44
2022/06/28 06:40:04;;;;;;;3.70;3.40;;;25.40;60.90;;;;;;5032323;28;20185;-44
2022/06/28 06:42:30;;;;;;;5.67;4.67;;;25.40;60.60;;;;;;5027827;28;20201;-46
2022/06/28 06:44:56;;;;;;;5.00;4.50;;;25.50;60.40;;;;;;5032119;28;20981;-44
2022/06/28 06:47:22;;;;;;;5.27;4.87;;;25.60;60.20;;;;;;5040924;28;20177;-44
2022/06/28 06:49:48;;;;;;;4.27;3.87;;;25.60;60.50;;;;;;5033677;28;20938;-45
2022/06/28 06:52:14;;;;;;;4.73;4.33;;;25.60;60.00;;;;;;5030373;28;20295;-44
2022/06/28 06:54:39;;;;;;;4.37;4.03;;;25.70;59.80;;;;;;5032009;28;20264;-44
2022/06/28 06:57:05;;;;;;;5.80;5.17;;;25.70;59.50;;;;;;5030236;28;20197;-45
2022/06/28 06:59:31;;;;;;;4.60;4.30;;;25.70;59.10;;;;;;5033396;28;20207;-47
2022/06/28 07:01:57;;;;;;;5.90;5.40;;;25.80;59.00;;;;;;5036555;28;20463;-45
2022/06/28 07:04:22;;;;;;;5.43;4.77;;;25.80;58.90;;;;;;5033251;28;20261;-43
2022/06/28 07:06:48;;;;;;;6.00;5.60;;;25.70;58.60;;;;;;5029899;28;20201;-44
2022/06/28 07:09:14;;;;;;;8.27;4.40;;;25.70;58.80;;;;;;5030302;28;20193;-46
2022/06/28 07:11:39;;;;;;;6.33;4.80;;;25.70;58.90;;;;;;5037794;28;20280;-48
2022/06/28 07:14:05;;;;;;;5.47;3.90;;;25.60;58.80;;;;;;5033080;28;20447;-44
2022/06/28 07:16:31;;;;;;;4.90;4.50;;;25.60;58.80;;;;;;5036708;28;20192;-44
2022/06/28 07:18:57;;;;;;;5.20;4.70;;;25.60;58.80;;;;;;5034022;28;20247;-44
2022/06/28 07:21:23;;;;;;;5.80;5.33;;;25.70;58.70;;;;;;5035518;28;20215;-45
2022/06/28 07:23:49;;;;;;;5.60;5.20;;;25.60;58.30;;;;;;5032965;28;20840;-43
2022/06/28 07:26:16;;;;;;;5.50;5.00;;;25.50;58.70;;;;;;5027827;28;20668;-43
2022/06/28 07:28:42;;;;;;;5.43;4.97;;;25.40;59.00;;;;;;5030876;28;20236;-47
2022/06/28 07:31:07;;;;;;;3.70;3.50;;;25.30;59.40;;;;;;5035390;28;20463;-45
2022/06/28 07:33:33;;;;;;;5.40;4.97;;;25.30;59.70;;;;;;5034082;28;20201;-45
2022/06/28 07:35:59;;;;;;;3.83;3.63;;;25.30;59.80;;;;;;5028968;28;20221;-44
2022/06/28 07:38:25;;;;;;;4.13;3.80;;;25.30;59.90;;;;;;5029086;28;20271;-47
2022/06/28 07:40:50;;;;;;;4.50;4.10;;;25.30;60.30;;;;;;5031793;28;20304;-46
2022/06/28 07:43:16;;;;;;;5.77;5.37;;;25.40;60.20;;;;;;5032745;28;20201;-44
2022/06/28 07:45:42;;;;;;;5.20;4.80;;;25.40;59.50;;;;;;5030200;28;20200;-44
2022/06/28 07:48:08;;;;;;;4.73;4.43;;;25.50;59.10;;;;;;5031196;28;20254;-43
2022/06/28 07:53:18;;;;;;;4.20;3.90;;;25.60;58.90;;;;;;5029903;28;20463;-44
2022/06/28 07:55:44;;;;;;;3.33;3.13;;;25.80;59.20;;;;;;5030348;28;20466;-48
2022/06/28 07:58:10;;;;;;;4.13;3.83;;;25.90;59.70;;;;;;5028251;28;20432;-45
2022/06/28 08:00:36;;;;;;;4.10;3.80;;;26.10;59.00;;;;;;5032403;28;20200;-44
2022/06/28 08:03:02;;;;;;;4.60;4.20;;;26.20;59.20;;;;;;5030449;28;20189;-44
2022/06/28 08:05:27;;;;;;;3.67;3.47;;;26.40;57.60;;;;;;5027989;28;20572;-44
2022/06/28 08:07:53;;;;;;;4.37;4.07;;;26.60;57.20;;;;;;5021340;28;20255;-43
2022/06/28 08:10:19;;;;;;;3.77;3.47;;;26.70;56.70;;;;;;5026800;28;20196;-43
2022/06/28 08:12:44;;;;;;;3.60;3.30;;;26.90;56.20;;;;;;5040930;28;20189;-44
2022/06/28 08:15:10;;;;;;;3.50;3.30;;;27.10;56.30;;;;;;5038577;28;20241;-43
2022/06/28 08:17:36;;;;;;;3.30;3.10;;;27.20;55.20;;;;;;5030858;28;20189;-43
2022/06/28 08:20:03;;;;;;;3.80;3.60;;;27.40;54.70;;;;;;5035115;28;20492;-43
2022/06/28 08:22:28;;;;;;;3.30;3.10;;;27.60;54.10;;;;;;5029517;28;20192;-46
2022/06/28 08:24:54;;;;;;;3.70;3.40;;;27.80;53.90;;;;;;5027527;28;21049;-43
2022/06/28 08:27:19;;;;;;;3.63;3.33;;;27.80;54.40;;;;;;5017328;28;20193;-46
2022/06/28 08:29:46;;;;;;;3.60;3.40;;;27.90;54.10;;;;;;5023151;28;20292;-46
2022/06/28 08:32:12;;;;;;;5.73;4.03;;;28.00;53.90;;;;;;5034769;28;20224;-44
2022/06/28 08:34:39;;;;;;;4.20;3.90;;;26.90;53.40;;;;;;5034559;28;20455;-46
2022/06/28 08:37:05;;;;;;;3.43;3.13;;;27.20;54.20;;;;;;5035648;28;20895;-44
2022/06/28 08:39:32;;;;;;;3.57;3.37;;;27.50;53.90;;;;;;5041001;28;20432;-46
2022/06/28 08:42:04;;;;;;;3.70;3.50;;;27.80;54.00;;;;;;5043182;28;20436;-45
2022/06/28 08:44:34;;;;;;;3.00;2.80;;;28.10;53.10;;;;;;5037133;28;20507;-43
2022/06/28 08:47:00;;;;;;;2.63;2.37;;;28.40;53.50;;;;;;5042142;28;20443;-44
2022/06/28 08:49:44;;;;;;;3.37;3.10;;;28.50;52.20;;;;;;5039025;28;20462;-44
2022/06/28 08:52:10;;;;;;;3.20;2.73;;;28.50;50.30;;;;;;5026169;28;20574;-46
2022/06/28 08:54:36;;;;;;;4.50;3.17;;;28.40;49.70;;;;;;5039625;28;20875;-47
2022/06/28 08:57:05;;;;;;;2.63;2.40;;;28.50;50.40;;;;;;5035239;28;20197;-44
2022/06/28 08:59:31;;;;;;;3.73;3.03;;;28.70;50.50;;;;;;5035589;28;20259;-46
2022/06/28 09:01:56;;;;;;;2.93;2.60;;;28.80;48.20;;;;;;5033111;28;21180;-43
2022/06/28 09:04:22;;;;;;;2.60;2.40;;;28.80;47.80;;;;;;5038348;28;20307;-43
2022/06/28 09:06:48;;;;;;;2.97;2.77;;;28.70;49.20;;;;;;5052061;28;20227;-44
2022/06/28 09:09:13;;;;;;;2.40;2.23;;;28.90;50.10;;;;;;5038350;28;20205;-44
2022/06/28 09:11:44;;;;;;;2.30;2.10;;;29.00;48.10;;;;;;5047584;28;20196;-44
2022/06/28 09:14:20;;;;;;;2.40;2.20;;;29.00;47.30;;;;;;5037327;28;20197;-45
2022/06/28 09:16:45;;;;;;;6.73;2.87;;;29.30;47.90;;;;;;5035829;28;20427;-43
2022/06/28 09:19:11;;;;;;;2.33;2.13;;;29.30;47.60;;;;;;5036429;28;20474;-43
2022/06/28 09:21:42;;;;;;;2.20;2.10;;;29.40;47.30;;;;;;5047781;28;20197;-44
2022/06/28 09:24:08;;;;;;;2.00;1.90;;;29.50;47.30;;;;;;5038412;28;20231;-45
2022/06/28 09:26:34;;;;;;;2.27;2.17;;;29.60;47.30;;;;;;5038548;28;20444;-44
2022/06/28 09:29:00;;;;;;;2.00;1.90;;;29.70;46.90;;;;;;5035084;28;20189;-43
2022/06/28 09:31:28;;;;;;;2.43;2.23;;;29.90;46.70;;;;;;5040661;28;20731;-46
2022/06/28 09:34:00;;;;;;;2.80;2.10;;;30.00;47.40;;;;;;5031180;28;20208;-45
2022/06/28 09:36:26;;;;;;;2.30;2.20;;;30.10;46.30;;;;;;5033047;28;20818;-47
2022/06/28 09:38:55;;;;;;;1.97;1.83;;;30.10;45.80;;;;;;5037510;28;20942;-45
2022/06/28 09:41:21;;;;;;;2.10;2.00;;;30.20;45.50;;;;;;5038402;28;20810;-46
2022/06/28 09:44:00;;;;;;;2.43;1.90;;;30.30;45.40;;;;;;5033597;28;20978;-47
2022/06/28 09:46:28;;;;;;;3.60;2.23;;;30.40;45.10;;;;;;5039611;28;20440;-44
2022/06/28 09:49:04;;;;;;;2.00;1.90;;;30.40;44.70;;;;;;5037317;28;20485;-46
2022/06/28 09:51:32;;;;;;;3.73;2.73;;;30.40;43.40;;;;;;5033418;28;20522;-44
2022/06/28 09:54:09;;;;;;;2.30;2.20;;;30.40;44.60;;;;;;5031758;28;20455;-45
2022/06/28 09:56:43;;;;;;;2.50;2.40;;;30.60;44.60;;;;;;5033519;28;20835;-45
2022/06/28 09:59:10;;;;;;;2.17;2.07;;;30.60;43.70;;;;;;5024982;28;20451;-44
2022/06/28 10:01:37;;;;;;;2.67;2.47;;;30.70;44.50;;;;;;5031619;28;21244;-44
2022/06/28 10:04:03;;;;;;;4.43;3.30;;;30.70;45.00;;;;;;5030650;28;20519;-44
2022/06/28 10:06:29;;;;;;;2.50;2.30;;;30.70;43.80;;;;;;5029462;28;20468;-43
2022/06/28 10:08:57;;;;;;;4.83;3.50;;;30.80;43.20;;;;;;5031536;28;20485;-44
2022/06/28 10:11:23;;;;;;;2.73;2.33;;;30.70;43.20;;;;;;5031384;28;20478;-46
2022/06/28 10:16:45;;;;;;;3.30;2.70;;;30.70;43.50;;;;;;5033413;28;20208;-45
2022/06/28 10:19:19;;;;;;;2.70;2.40;;;30.80;44.30;;;;;;5038109;28;20916;-48
2022/06/28 10:22:10;;;;;;;2.23;2.13;;;30.80;44.80;;;;;;5018541;28;20453;-46
2022/06/28 10:24:55;;;;;;;4.47;2.37;;;31.10;44.90;;;;;;5034683;28;20971;-46
2022/06/28 10:27:22;;;;;;;2.10;2.00;;;31.20;44.30;;;;;;5035196;28;20456;-46
2022/06/28 10:30:08;;;;;;;3.00;2.03;;;31.20;43.10;;;;;;5030473;28;20536;-47
2022/06/28 10:32:51;;;;;;;1.87;1.77;;;31.20;44.30;;;;;;5039326;28;20981;-44
2022/06/28 10:35:32;;;;;;;2.33;1.60;;;31.10;43.40;;;;;;5040593;28;20482;-46
2022/06/28 10:38:10;;;;;;;2.27;2.07;;;31.10;43.90;;;;;;5042566;28;20466;-44
2022/06/28 10:40:39;;;;;;;2.03;1.93;;;31.10;44.10;;;;;;5037663;28;20964;-45
2022/06/28 10:43:04;;;;;;;4.60;2.27;;;31.10;44.00;;;;;;5030916;28;20462;-45
2022/06/28 10:46:07;;;;;;;2.17;1.97;;;31.10;44.40;;;;;;5030730;28;20480;-46
2022/06/28 10:48:48;;;;;;;2.20;2.00;;;31.10;42.90;;;;;;5034519;28;20200;-45
2022/06/28 10:51:14;;;;;;;2.13;1.67;;;31.10;43.60;;;;;;5034294;28;20570;-46
2022/06/28 10:53:55;;;;;;;2.10;1.40;;;31.20;43.60;;;;;;5033529;28;20452;-45
2022/06/28 10:56:21;;;;;;;1.80;1.70;;;31.30;44.20;;;;;;5034103;28;20951;-45
2022/06/28 10:58:58;;;;;;;2.00;1.90;;;31.30;42.10;;;;;;5031565;28;20505;-44
2022/06/28 11:01:44;;;;;;;1.90;1.80;;;31.40;43.50;;;;;;5032008;28;20578;-47
2022/06/28 11:04:12;;;;;;;2.03;1.90;;;31.50;41.80;;;;;;5042025;28;20548;-45
2022/06/28 11:06:58;;;;;;;2.70;1.63;;;31.60;42.00;;;;;;5046629;28;21093;-45
2022/06/28 11:09:52;;;;;;;2.97;1.97;;;31.80;42.60;;;;;;5045387;28;20454;-45
2022/06/28 11:12:22;;;;;;;1.80;1.70;;;32.00;40.80;;;;;;5032919;28;20542;-45
2022/06/28 11:14:52;;;;;;;2.70;1.80;;;31.80;40.10;;;;;;5045792;28;20458;-45
2022/06/28 11:17:32;;;;;;;1.80;1.70;;;31.90;40.70;;;;;;5032961;28;20448;-45
2022/06/28 11:20:03;;;;;;;2.43;2.07;;;31.80;40.20;;;;;;5026869;28;20450;-49
2022/06/28 11:22:33;;;;;;;2.30;1.80;;;31.60;40.80;;;;;;5028165;28;20475;-46
2022/06/28 11:25:02;;;;;;;1.90;1.80;;;31.70;40.40;;;;;;5031717;28;20491;-45
2022/06/28 11:27:28;;;;;;;1.53;1.43;;;31.50;40.40;;;;;;5036094;28;20447;-46
2022/06/28 11:29:55;;;;;;;1.70;1.60;;;31.50;40.70;;;;;;5036548;28;21200;-46
2022/06/28 11:32:23;;;;;;;1.40;1.30;;;31.20;40.70;;;;;;5041852;28;20190;-44
2022/06/28 11:35:00;;;;;;;1.93;1.80;;;31.10;40.60;;;;;;5036585;28;20447;-44
2022/06/28 11:37:26;;;;;;;1.90;1.80;;;31.20;41.40;;;;;;5026781;28;20510;-45
2022/06/28 11:39:54;;;;;;;1.83;1.73;;;31.20;42.50;;;;;;5032180;28;20448;-46
2022/06/28 11:42:20;;;;;;;3.33;1.60;;;31.40;42.00;;;;;;5029821;28;20526;-47
2022/06/28 11:44:47;;;;;;;1.73;1.63;;;31.60;42.20;;;;;;5029324;28;20638;-46
2022/06/28 11:47:16;;;;;;;1.77;1.67;;;31.70;41.20;;;;;;5030437;28;20198;-45
2022/06/28 11:49:42;;;;;;;4.00;1.90;;;31.60;40.10;;;;;;5029033;28;20472;-46
2022/06/28 11:52:16;;;;;;;1.67;1.57;;;31.30;41.80;;;;;;5033781;28;20471;-46
2022/06/28 11:54:43;;;;;;;1.53;1.50;;;31.00;41.60;;;;;;5030014;28;20440;-44
2022/06/28 11:57:16;;;;;;;1.70;1.50;;;31.00;42.10;;;;;;5020414;28;21018;-45
2022/06/28 11:59:57;;;;;;;2.00;1.53;;;31.10;40.80;;;;;;5021845;28;20818;-45
2022/06/28 12:02:46;;;;;;;1.63;1.53;;;31.20;41.40;;;;;;5029786;28;20452;-46
2022/06/28 12:05:12;;;;;;;1.60;1.50;;;31.40;41.10;;;;;;5030120;28;20496;-45
2022/06/28 12:07:43;;;;;;;1.67;1.40;;;31.40;41.50;;;;;;5030471;28;21026;-47
2022/06/28 12:10:28;;;;;;;1.40;1.30;;;31.40;41.60;;;;;;5024883;28;20444;-45
2022/06/28 12:12:54;;;;;;;1.50;1.40;;;31.40;40.50;;;;;;5028496;28;21010;-45
2022/06/28 12:15:32;;;;;;;2.50;1.50;;;31.30;40.80;;;;;;5030314;28;20443;-45
2022/06/28 12:18:04;;;;;;;1.50;1.40;;;31.40;40.40;;;;;;5020861;28;20440;-45
2022/06/28 12:20:31;;;;;;;2.87;1.60;;;31.30;41.00;;;;;;5025332;28;20525;-44
2022/06/28 12:23:02;;;;;;;2.10;1.40;;;31.20;40.40;;;;;;5023094;28;20436;-48
2022/06/28 12:25:29;;;;;;;1.60;1.50;;;31.30;41.20;;;;;;5020612;28;20503;-48
2022/06/28 12:27:55;;;;;;;1.80;1.70;;;31.30;40.00;;;;;;5041943;28;20446;-44
2022/06/28 12:30:22;;;;;;;1.53;1.43;;;31.50;39.90;;;;;;5027750;28;20443;-45
2022/06/28 12:32:49;;;;;;;3.63;1.60;;;31.60;40.60;;;;;;5026689;28;21327;-45
2022/06/28 12:35:16;;;;;;;1.50;1.40;;;31.10;40.90;;;;;;5035154;28;20466;-45
2022/06/28 12:37:42;;;;;;;1.40;1.30;;;31.20;41.40;;;;;;5023695;28;20439;-49
2022/06/28 12:40:09;;;;;;;1.50;1.40;;;31.40;39.90;;;;;;5027173;28;20496;-45
2022/06/28 12:42:35;;;;;;;1.60;1.50;;;31.20;38.70;;;;;;5030846;28;20480;-47
2022/06/28 12:45:01;;;;;;;1.63;1.53;;;30.80;39.70;;;;;;5023833;28;20483;-49
2022/06/28 12:47:31;;;;;;;1.30;1.20;;;30.60;40.00;;;;;;5035779;28;20461;-48
2022/06/28 12:49:59;;;;;;;1.37;1.00;;;30.70;40.50;;;;;;5027059;28;20927;-50
2022/06/28 12:52:26;;;;;;;1.57;1.47;;;30.90;40.40;;;;;;5028687;28;20475;-49
2022/06/28 12:54:52;;;;;;;1.53;1.43;;;31.00;39.10;;;;;;5031694;28;20440;-50
2022/06/28 12:57:17;;;;;;;1.30;1.20;;;31.00;38.70;;;;;;5029383;28;20962;-49
2022/06/28 12:59:43;;;;;;;1.70;1.60;;;31.00;39.50;;;;;;5025554;28;20201;-47
2022/06/28 13:02:09;;;;;;;3.27;1.33;;;31.00;39.90;;;;;;5029628;28;20208;-49